Time;durP1;ratioP1;P1;durP2;ratioP2;P2;SDS_P1;SDS_P2;PMS_P1;PMS_P2;Temp;Humidity;BMP_temperature;BMP_pressure;BME280_temperature;BME280_humidity;BME280_pressure;Samples;Min_cycle;Max_cycle;Signal;HPM_P1;HPM_P2
2022/02/19 00:00:35;;;;;;;10.13;1.47;;;9.00;97.60;;;;;;5013551;28;20227;-77
2022/02/19 00:03:02;;;;;;;5.00;1.38;;;9.00;97.70;;;;;;5004285;28;20179;-78
2022/02/19 00:05:28;;;;;;;7.47;1.15;;;8.90;97.80;;;;;;5001568;28;20234;-77
2022/02/19 00:07:55;;;;;;;5.43;1.67;;;8.90;98.00;;;;;;4996666;28;20205;-77
2022/02/19 00:10:21;;;;;;;9.05;1.92;;;8.90;98.20;;;;;;5013972;28;20521;-77
2022/02/19 00:12:47;;;;;;;10.70;2.10;;;8.90;98.20;;;;;;5016857;28;20210;-78
2022/02/19 00:15:13;;;;;;;10.80;1.90;;;8.90;98.30;;;;;;5021281;28;20179;-78
2022/02/19 00:17:39;;;;;;;8.52;1.45;;;8.80;98.40;;;;;;5016681;28;20180;-77
2022/02/19 00:20:07;;;;;;;5.70;1.30;;;8.80;98.60;;;;;;5014839;28;20189;-78
2022/02/19 00:22:35;;;;;;;7.63;1.33;;;8.80;98.70;;;;;;5011536;28;20197;-78
2022/02/19 00:25:03;;;;;;;6.38;1.77;;;8.80;98.80;;;;;;5018343;28;20270;-78
2022/02/19 00:27:28;;;;;;;6.88;1.25;;;8.80;98.90;;;;;;5002448;28;20194;-78
2022/02/19 00:29:54;;;;;;;8.10;1.83;;;8.80;99.00;;;;;;5015626;28;20188;-78
2022/02/19 00:32:20;;;;;;;8.05;2.10;;;8.70;99.00;;;;;;4984770;28;20238;-78
2022/02/19 00:34:46;;;;;;;14.43;2.40;;;8.70;99.10;;;;;;5013906;28;20186;-78
2022/02/19 00:37:13;;;;;;;8.45;1.55;;;8.70;99.10;;;;;;4982066;28;20241;-78
2022/02/19 00:39:39;;;;;;;4.70;1.47;;;8.70;99.20;;;;;;4975715;28;20207;-78
2022/02/19 00:42:05;;;;;;;10.53;1.80;;;8.70;99.00;;;;;;5001611;28;20175;-78
2022/02/19 00:44:32;;;;;;;8.43;1.50;;;8.70;99.00;;;;;;5011136;28;20601;-76
2022/02/19 00:46:59;;;;;;;7.45;1.90;;;8.60;99.00;;;;;;5008885;28;20206;-76
2022/02/19 00:49:25;;;;;;;7.40;1.70;;;8.60;99.00;;;;;;5008365;28;20226;-77
2022/02/19 00:51:51;;;;;;;6.00;1.77;;;8.60;99.10;;;;;;5001216;28;20205;-78
2022/02/19 00:54:17;;;;;;;9.85;1.52;;;8.60;99.10;;;;;;5003622;28;20250;-77
2022/02/19 00:56:43;;;;;;;10.50;1.92;;;8.60;99.00;;;;;;4992886;28;20562;-77
2022/02/19 00:59:10;;;;;;;6.32;1.25;;;8.60;99.10;;;;;;4984917;28;20205;-77
2022/02/19 01:01:37;;;;;;;10.55;1.52;;;8.60;99.20;;;;;;4993331;28;20178;-77
2022/02/19 01:04:18;;;;;;;6.90;1.30;;;8.60;99.10;;;;;;4984618;28;20195;-76
2022/02/19 01:06:44;;;;;;;8.00;1.60;;;8.60;99.20;;;;;;4982917;28;20199;-77
2022/02/19 01:09:11;;;;;;;8.37;1.50;;;8.60;99.30;;;;;;4993831;28;20194;-77
2022/02/19 01:11:39;;;;;;;6.82;1.20;;;8.60;99.40;;;;;;4998449;28;20564;-77
2022/02/19 01:14:09;;;;;;;6.25;1.50;;;8.60;99.50;;;;;;4992443;28;20175;-77
2022/02/19 01:16:35;;;;;;;12.77;1.55;;;8.70;99.40;;;;;;5002232;28;20220;-77
2022/02/19 01:19:01;;;;;;;10.80;1.80;;;8.60;99.50;;;;;;4990451;28;20209;-77
2022/02/19 01:21:27;;;;;;;4.80;1.50;;;8.60;99.50;;;;;;4990126;28;20190;-77
2022/02/19 01:23:53;;;;;;;12.40;2.10;;;8.60;99.80;;;;;;4988032;28;20586;-77
2022/02/19 01:26:18;;;;;;;6.50;1.40;;;8.60;99.80;;;;;;4987124;28;20289;-77
2022/02/19 01:28:49;;;;;;;3.90;1.38;;;8.70;99.80;;;;;;4973157;28;20540;-77
2022/02/19 01:31:14;;;;;;;7.17;1.77;;;8.70;99.90;;;;;;4989536;28;20174;-77
2022/02/19 01:33:40;;;;;;;7.63;1.20;;;8.80;99.80;;;;;;4986859;28;20194;-77
2022/02/19 01:36:10;;;;;;;11.40;1.27;;;8.80;99.80;;;;;;4995183;28;20186;-77
2022/02/19 01:38:37;;;;;;;12.50;1.30;;;8.80;99.80;;;;;;4986685;28;20238;-77
2022/02/19 01:41:03;;;;;;;3.53;1.30;;;8.80;99.90;;;;;;4981419;28;20190;-78
2022/02/19 01:43:31;;;;;;;6.63;1.40;;;8.80;99.80;;;;;;4996653;28;20701;-77
2022/02/19 01:45:57;;;;;;;7.93;1.00;;;8.80;99.80;;;;;;4998164;28;20313;-77
2022/02/19 01:48:23;;;;;;;11.30;1.42;;;8.80;99.90;;;;;;4977959;28;20582;-78
2022/02/19 01:50:50;;;;;;;3.90;1.23;;;8.80;99.90;;;;;;4979558;28;20190;-77
2022/02/19 01:53:17;;;;;;;6.38;1.20;;;8.80;99.90;;;;;;4995051;28;20626;-77
2022/02/19 01:55:48;;;;;;;9.02;1.25;;;8.80;99.90;;;;;;4996381;28;20525;-77
2022/02/19 01:58:23;;;;;;;8.02;1.90;;;8.80;99.90;;;;;;4974977;28;20709;-77
2022/02/19 02:01:11;;;;;;;6.13;1.23;;;8.70;99.90;;;;;;4996734;28;20190;-77
2022/02/19 02:04:03;;;;;;;4.95;1.17;;;8.80;99.90;;;;;;5002489;28;20187;-77
2022/02/19 02:06:32;;;;;;;4.82;1.33;;;8.70;99.90;;;;;;5004541;28;20206;-77
2022/02/19 02:09:02;;;;;;;7.60;1.08;;;8.70;99.90;;;;;;4971012;28;20632;-78
2022/02/19 02:11:33;;;;;;;4.15;1.10;;;8.60;99.90;;;;;;4984589;28;20247;-77
2022/02/19 02:13:59;;;;;;;3.93;1.00;;;8.50;99.90;;;;;;4987997;28;20179;-77
2022/02/19 02:16:38;;;;;;;5.55;1.58;;;8.40;99.90;;;;;;4971757;28;20178;-77
2022/02/19 02:19:08;;;;;;;4.25;0.90;;;8.20;99.90;;;;;;5005801;28;20758;-77
2022/02/19 02:21:36;;;;;;;2.83;1.10;;;8.10;99.90;;;;;;4969644;28;20808;-77
2022/02/19 02:24:02;;;;;;;7.05;1.23;;;8.00;99.90;;;;;;4970706;28;20754;-77
2022/02/19 02:26:29;;;;;;;8.02;1.85;;;8.00;99.90;;;;;;4983795;28;20702;-77
2022/02/19 02:28:54;;;;;;;4.22;1.00;;;7.90;99.90;;;;;;5005448;28;20227;-78
2022/02/19 02:31:22;;;;;;;3.70;1.00;;;7.90;99.90;;;;;;4972704;28;20185;-77
2022/02/19 02:33:49;;;;;;;7.57;1.20;;;7.90;99.90;;;;;;4980457;28;20248;-78
2022/02/19 02:36:16;;;;;;;8.45;1.73;;;7.80;99.90;;;;;;4996866;28;20246;-79
2022/02/19 02:38:47;;;;;;;5.60;0.98;;;7.80;99.90;;;;;;4998208;28;20738;-77
2022/02/19 02:41:13;;;;;;;5.70;1.00;;;7.70;99.90;;;;;;5005068;28;20186;-78
2022/02/19 02:43:39;;;;;;;3.80;0.90;;;7.70;99.90;;;;;;4993383;28;20648;-78
2022/02/19 02:46:07;;;;;;;2.63;1.02;;;7.60;99.90;;;;;;5005026;28;20210;-77
2022/02/19 02:48:33;;;;;;;6.97;1.45;;;7.60;99.90;;;;;;4994755;28;20194;-77
2022/02/19 02:51:03;;;;;;;6.05;1.80;;;7.60;99.90;;;;;;4992188;28;20174;-78
2022/02/19 02:53:29;;;;;;;4.30;1.08;;;7.60;99.90;;;;;;4979801;28;20202;-77
2022/02/19 02:55:55;;;;;;;2.53;1.00;;;7.60;99.90;;;;;;4984242;28;20183;-78
2022/02/19 02:58:21;;;;;;;5.10;1.40;;;7.70;99.90;;;;;;4984209;28;20199;-78
2022/02/19 03:00:46;;;;;;;4.30;0.98;;;7.70;99.90;;;;;;5002512;28;20280;-78
2022/02/19 03:03:12;;;;;;;4.60;1.20;;;7.80;99.90;;;;;;4995671;28;20273;-77
2022/02/19 03:05:40;;;;;;;7.20;1.20;;;7.90;99.90;;;;;;4985588;28;20210;-78
2022/02/19 03:08:06;;;;;;;5.30;0.90;;;7.90;99.90;;;;;;4995032;28;20194;-78
2022/02/19 03:10:32;;;;;;;5.70;0.93;;;8.00;99.90;;;;;;4983805;28;20179;-78
2022/02/19 03:12:58;;;;;;;4.10;1.00;;;8.00;99.90;;;;;;4996959;28;20174;-79
2022/02/19 03:15:26;;;;;;;3.85;1.27;;;8.00;99.90;;;;;;4978879;28;20182;-77
2022/02/19 03:17:52;;;;;;;4.38;0.95;;;8.10;99.90;;;;;;4977370;28;20203;-77
2022/02/19 03:20:21;;;;;;;4.47;1.17;;;8.10;99.90;;;;;;5000635;28;20186;-77
2022/02/19 03:22:48;;;;;;;6.50;1.23;;;8.10;99.90;;;;;;4983993;28;20582;-77
2022/02/19 03:25:17;;;;;;;3.67;0.80;;;8.10;99.90;;;;;;4988541;28;20229;-77
2022/02/19 03:27:45;;;;;;;3.17;1.25;;;8.10;99.90;;;;;;4983475;28;20309;-77
2022/02/19 03:30:16;;;;;;;5.18;1.60;;;8.10;99.90;;;;;;4967965;28;20187;-77
2022/02/19 03:32:43;;;;;;;8.32;1.10;;;8.10;99.90;;;;;;4994897;28;20189;-77
2022/02/19 03:35:14;;;;;;;3.53;0.90;;;8.10;99.90;;;;;;4991722;28;20183;-78
2022/02/19 03:37:41;;;;;;;5.00;1.45;;;8.10;99.90;;;;;;4976915;28;20210;-78
2022/02/19 03:40:16;;;;;;;7.28;1.27;;;8.20;99.90;;;;;;4986539;28;20232;-78
2022/02/19 03:42:43;;;;;;;5.20;1.10;;;8.10;99.90;;;;;;4986664;28;20186;-77
2022/02/19 03:45:12;;;;;;;9.75;1.45;;;8.20;99.90;;;;;;4983535;28;20246;-76
2022/02/19 03:47:41;;;;;;;7.28;1.02;;;8.20;99.90;;;;;;4976087;28;20635;-76
2022/02/19 03:50:10;;;;;;;4.22;1.00;;;8.20;99.90;;;;;;4997341;28;20181;-77
2022/02/19 03:52:38;;;;;;;4.93;1.23;;;8.20;99.90;;;;;;5005230;28;20174;-76
2022/02/19 03:55:08;;;;;;;4.93;1.15;;;8.20;99.90;;;;;;5000930;28;20200;-76
2022/02/19 03:57:34;;;;;;;3.75;0.95;;;8.30;99.90;;;;;;4959219;28;20182;-76
2022/02/19 03:59:59;;;;;;;3.27;0.87;;;8.20;99.90;;;;;;4990562;28;20178;-76
2022/02/19 04:02:25;;;;;;;9.20;0.97;;;8.20;99.90;;;;;;4983738;28;20589;-76
2022/02/19 04:04:53;;;;;;;5.53;0.88;;;8.20;99.90;;;;;;4986261;28;20317;-76
2022/02/19 04:07:21;;;;;;;5.82;0.80;;;8.20;99.90;;;;;;4983532;28;20233;-76
2022/02/19 04:09:56;;;;;;;4.75;1.05;;;8.20;99.90;;;;;;4976186;28;20690;-76
2022/02/19 04:12:25;;;;;;;3.17;0.73;;;8.20;99.90;;;;;;4985622;28;20537;-76
2022/02/19 04:14:54;;;;;;;4.25;0.70;;;8.20;99.90;;;;;;4993126;28;20183;-75
2022/02/19 04:17:22;;;;;;;3.80;0.90;;;8.20;99.90;;;;;;4985096;28;20178;-76
2022/02/19 04:19:50;;;;;;;6.45;0.90;;;8.20;99.90;;;;;;4984302;28;20222;-75
2022/02/19 04:22:20;;;;;;;5.40;0.98;;;8.30;99.90;;;;;;4983409;28;20533;-76
2022/02/19 04:24:46;;;;;;;2.55;0.63;;;8.20;99.90;;;;;;5000304;28;20183;-76
2022/02/19 04:27:19;;;;;;;5.18;1.20;;;8.20;99.90;;;;;;4996153;28;20186;-76
2022/02/19 04:29:46;;;;;;;4.10;0.80;;;8.20;99.90;;;;;;4982853;28;20225;-77
2022/02/19 04:32:12;;;;;;;3.35;0.60;;;8.20;99.90;;;;;;4986534;28;20193;-76
2022/02/19 04:34:47;;;;;;;2.33;0.70;;;8.20;99.90;;;;;;4975762;28;20605;-76
2022/02/19 04:37:13;;;;;;;4.77;0.83;;;8.20;99.90;;;;;;4984527;28;20178;-77
2022/02/19 04:39:41;;;;;;;7.25;1.00;;;8.20;99.90;;;;;;5000596;28;20621;-76
2022/02/19 04:42:15;;;;;;;4.47;0.90;;;8.20;99.90;;;;;;4999052;28;20182;-77
2022/02/19 04:44:41;;;;;;;6.15;1.23;;;8.10;99.90;;;;;;4985117;28;20519;-76
2022/02/19 04:47:07;;;;;;;4.33;0.87;;;8.20;99.90;;;;;;4992240;28;20237;-76
2022/02/19 04:49:34;;;;;;;5.45;1.10;;;8.20;99.90;;;;;;5001467;28;20630;-77
2022/02/19 04:51:59;;;;;;;6.37;1.00;;;8.20;99.90;;;;;;4980499;28;20170;-76
2022/02/19 04:54:26;;;;;;;3.50;0.80;;;8.20;99.90;;;;;;5013045;28;20177;-76
2022/02/19 04:56:52;;;;;;;5.93;1.00;;;8.20;99.90;;;;;;5002661;28;20232;-76
2022/02/19 04:59:18;;;;;;;3.38;0.85;;;8.20;99.90;;;;;;4992254;28;20201;-76
2022/02/19 05:01:45;;;;;;;8.48;1.58;;;8.10;99.90;;;;;;5002159;28;20205;-76
2022/02/19 05:04:17;;;;;;;3.20;1.00;;;8.10;99.90;;;;;;4999282;28;20182;-77
2022/02/19 05:06:59;;;;;;;4.53;0.98;;;8.00;99.90;;;;;;4988115;28;20235;-76
2022/02/19 05:09:24;;;;;;;5.23;1.00;;;7.90;99.90;;;;;;4986246;28;20767;-76
2022/02/19 05:12:06;;;;;;;4.97;1.20;;;7.90;99.90;;;;;;4973549;28;20543;-76
2022/02/19 05:14:38;;;;;;;9.93;1.00;;;7.90;99.90;;;;;;5006210;28;20189;-76
2022/02/19 05:17:15;;;;;;;3.35;0.82;;;7.80;99.90;;;;;;4978610;28;20608;-76
2022/02/19 05:19:45;;;;;;;7.13;1.00;;;7.80;99.90;;;;;;5003485;28;20225;-76
2022/02/19 05:22:12;;;;;;;2.95;0.70;;;7.80;99.90;;;;;;4971971;28;20210;-76
2022/02/19 05:24:42;;;;;;;5.22;0.95;;;7.70;99.90;;;;;;4969676;28;20179;-75
2022/02/19 05:27:12;;;;;;;6.22;0.93;;;7.70;99.90;;;;;;4980378;28;20195;-76
2022/02/19 05:29:40;;;;;;;8.30;1.05;;;7.70;99.90;;;;;;4995836;28;20210;-76
2022/02/19 05:32:10;;;;;;;11.77;1.63;;;7.60;99.90;;;;;;5005727;28;20178;-76
2022/02/19 05:34:59;;;;;;;4.82;0.90;;;7.60;99.90;;;;;;5001427;28;20233;-75
2022/02/19 05:37:25;;;;;;;7.10;1.07;;;7.60;99.90;;;;;;4992997;28;20221;-76
2022/02/19 05:39:53;;;;;;;7.22;1.10;;;7.50;99.90;;;;;;4992524;28;20578;-76
2022/02/19 05:42:21;;;;;;;4.13;0.85;;;7.50;99.90;;;;;;4993478;28;20535;-76
2022/02/19 05:44:52;;;;;;;2.45;0.60;;;7.50;99.90;;;;;;5006173;28;20674;-76
2022/02/19 05:47:21;;;;;;;4.30;1.20;;;7.40;99.90;;;;;;4972613;28;20265;-76
2022/02/19 05:50:08;;;;;;;7.10;1.08;;;7.40;99.90;;;;;;4990871;28;20593;-77
2022/02/19 05:52:48;;;;;;;9.13;1.00;;;7.40;99.90;;;;;;4977257;28;20225;-76
2022/02/19 05:55:26;;;;;;;4.45;1.40;;;7.40;99.90;;;;;;5005431;28;20175;-76
2022/02/19 05:57:52;;;;;;;7.95;1.25;;;7.40;99.90;;;;;;4994116;28;20207;-76
2022/02/19 06:00:18;;;;;;;6.32;1.50;;;7.40;99.90;;;;;;4984776;28;20202;-76
2022/02/19 06:02:48;;;;;;;4.13;0.88;;;7.30;99.90;;;;;;4986291;28;20197;-76
2022/02/19 06:05:14;;;;;;;3.33;0.80;;;7.30;99.90;;;;;;4987823;28;20214;-76
2022/02/19 06:07:44;;;;;;;6.18;0.90;;;7.30;99.90;;;;;;5002333;28;20582;-75
2022/02/19 06:10:12;;;;;;;5.77;1.30;;;7.30;99.90;;;;;;4971126;28;20259;-77
2022/02/19 06:12:39;;;;;;;4.68;0.90;;;7.30;99.90;;;;;;4995328;28;20175;-76
2022/02/19 06:15:10;;;;;;;2.97;1.27;;;7.30;99.90;;;;;;4985265;28;20182;-76
2022/02/19 06:17:54;;;;;;;6.65;0.93;;;7.30;99.90;;;;;;4994451;28;20206;-77
2022/02/19 06:20:21;;;;;;;5.95;0.98;;;7.30;99.90;;;;;;4989048;28;20179;-77
2022/02/19 06:22:47;;;;;;;9.60;1.70;;;7.30;99.90;;;;;;4984864;28;20182;-77
2022/02/19 06:25:13;;;;;;;6.30;1.10;;;7.30;99.90;;;;;;4956201;28;20213;-76
2022/02/19 06:27:43;;;;;;;4.50;1.23;;;7.30;99.90;;;;;;4995002;28;20244;-76
2022/02/19 06:30:19;;;;;;;6.82;1.60;;;7.20;99.90;;;;;;4991093;28;20170;-76
2022/02/19 06:32:52;;;;;;;5.97;1.10;;;7.20;99.90;;;;;;4994106;28;20187;-76
2022/02/19 06:35:19;;;;;;;5.43;1.00;;;7.20;99.90;;;;;;4977648;28;20194;-76
2022/02/19 06:37:46;;;;;;;5.10;1.07;;;7.20;99.90;;;;;;4979146;28;20183;-76
2022/02/19 06:40:15;;;;;;;7.72;1.23;;;7.20;99.90;;;;;;4992622;28;20273;-76
2022/02/19 06:42:43;;;;;;;5.40;0.90;;;7.20;99.90;;;;;;4985609;28;20599;-77
2022/02/19 06:45:20;;;;;;;5.75;1.20;;;7.20;99.90;;;;;;4979667;28;20209;-76
2022/02/19 06:47:47;;;;;;;5.93;0.90;;;7.20;99.90;;;;;;4985092;28;20198;-77
2022/02/19 06:50:15;;;;;;;4.60;1.10;;;7.30;99.90;;;;;;4984781;28;20182;-77
2022/02/19 06:52:44;;;;;;;5.50;1.10;;;7.20;99.90;;;;;;4995051;28;20260;-76
2022/02/19 06:55:12;;;;;;;6.88;1.02;;;7.30;99.90;;;;;;4979505;28;20240;-76
2022/02/19 06:57:39;;;;;;;4.20;0.98;;;7.20;99.90;;;;;;4999032;28;20200;-77
2022/02/19 07:00:07;;;;;;;7.55;1.38;;;7.30;99.90;;;;;;4984248;28;20198;-76
2022/02/19 07:02:35;;;;;;;13.00;1.98;;;7.30;99.90;;;;;;4993458;28;20194;-76
2022/02/19 07:05:02;;;;;;;9.30;2.47;;;7.30;99.90;;;;;;4995553;28;20186;-76
2022/02/19 07:07:59;;;;;;;5.57;1.00;;;7.30;99.90;;;;;;4985438;28;20245;-76
2022/02/19 07:10:27;;;;;;;8.63;1.23;;;7.30;99.90;;;;;;4983843;28;20185;-76
2022/02/19 07:12:55;;;;;;;5.00;1.10;;;7.30;99.90;;;;;;4978919;28;20790;-76
2022/02/19 07:15:21;;;;;;;5.82;1.40;;;7.40;99.90;;;;;;4970068;28;20317;-78
2022/02/19 07:18:06;;;;;;;11.98;2.03;;;7.40;99.90;;;;;;4985295;28;20194;-76
2022/02/19 07:20:43;;;;;;;9.25;1.08;;;7.40;99.90;;;;;;4994101;28;20193;-77
2022/02/19 07:23:09;;;;;;;8.82;1.30;;;7.40;99.90;;;;;;4975601;28;20187;-77
2022/02/19 07:25:34;;;;;;;7.37;1.53;;;7.40;99.90;;;;;;4978518;28;20217;-76
2022/02/19 07:28:01;;;;;;;4.50;1.20;;;7.40;99.90;;;;;;4975683;28;20745;-77
2022/02/19 07:30:27;;;;;;;4.25;1.17;;;7.50;99.90;;;;;;5003397;28;20264;-76
2022/02/19 07:32:53;;;;;;;10.45;1.20;;;7.50;99.90;;;;;;4985135;28;20506;-76
2022/02/19 07:35:36;;;;;;;5.38;1.50;;;7.50;99.90;;;;;;4989627;28;20194;-76
2022/02/19 07:38:03;;;;;;;10.45;1.30;;;7.60;99.90;;;;;;4989585;28;20262;-77
2022/02/19 07:40:29;;;;;;;6.32;1.50;;;7.60;99.90;;;;;;4992327;28;20531;-77
2022/02/19 07:42:55;;;;;;;5.25;1.83;;;7.60;99.90;;;;;;4977917;28;20823;-77
2022/02/19 07:45:39;;;;;;;6.43;1.23;;;7.70;99.90;;;;;;4986358;28;20241;-77
2022/02/19 07:48:34;;;;;;;10.38;1.20;;;7.70;99.90;;;;;;4995189;28;20416;-77
2022/02/19 08:00:17;;;;;;;7.72;1.60;;;7.90;99.90;;;;;;4985961;28;20166;-78
2022/02/19 08:02:48;;;;;;;7.63;1.98;;;7.90;99.90;;;;;;4990964;28;20253;-77
2022/02/19 08:05:15;;;;;;;5.82;1.52;;;7.90;99.90;;;;;;4984244;28;20211;-77
2022/02/19 08:07:47;;;;;;;4.47;1.00;;;8.00;99.90;;;;;;4995271;28;20198;-77
2022/02/19 08:10:13;;;;;;;4.77;1.90;;;8.00;99.90;;;;;;4974630;28;20173;-76
2022/02/19 08:12:39;;;;;;;4.97;1.10;;;8.00;99.90;;;;;;5010210;28;20198;-75
2022/02/19 08:15:05;;;;;;;6.10;1.20;;;8.10;99.90;;;;;;5008562;28;20200;-75
2022/02/19 08:17:31;;;;;;;7.60;1.10;;;8.10;99.90;;;;;;4994362;28;20592;-75
2022/02/19 08:19:58;;;;;;;6.28;1.80;;;8.20;99.90;;;;;;5013520;28;20204;-76
2022/02/19 08:22:24;;;;;;;5.95;1.23;;;8.20;99.90;;;;;;5010279;28;20170;-75
2022/02/19 08:24:50;;;;;;;5.13;0.90;;;8.30;99.90;;;;;;5011258;28;20196;-77
2022/02/19 08:27:15;;;;;;;5.43;1.10;;;8.30;99.90;;;;;;4971218;28;20230;-76
2022/02/19 08:29:41;;;;;;;7.63;1.70;;;8.40;99.90;;;;;;4992953;28;20198;-78
2022/02/19 08:32:07;;;;;;;3.80;1.20;;;8.50;99.90;;;;;;4994119;28;20646;-78
2022/02/19 08:34:33;;;;;;;4.50;0.95;;;8.50;99.90;;;;;;4993810;28;20216;-78
2022/02/19 08:36:59;;;;;;;5.40;1.20;;;8.60;99.90;;;;;;5007809;28;20551;-77
2022/02/19 08:39:25;;;;;;;7.00;1.20;;;8.70;99.90;;;;;;4992584;28;20190;-75
2022/02/19 08:41:51;;;;;;;4.70;1.10;;;8.80;99.90;;;;;;5008650;28;20589;-76
2022/02/19 08:44:17;;;;;;;9.90;1.25;;;8.80;99.90;;;;;;5006914;28;20997;-76
2022/02/19 08:46:43;;;;;;;6.97;1.48;;;9.00;99.90;;;;;;4990044;28;20202;-75
2022/02/19 08:49:09;;;;;;;5.87;1.30;;;9.00;99.90;;;;;;5003599;28;20191;-76
2022/02/19 08:51:35;;;;;;;7.20;1.15;;;9.30;99.90;;;;;;4979038;28;20179;-75
2022/02/19 08:54:01;;;;;;;7.37;1.60;;;9.70;99.90;;;;;;4977081;28;20179;-76
2022/02/19 08:56:27;;;;;;;12.63;2.03;;;10.20;99.90;;;;;;4979762;28;20757;-76
2022/02/19 08:58:52;;;;;;;5.10;1.70;;;10.90;99.90;;;;;;5013780;28;20625;-76
2022/02/19 09:01:18;;;;;;;7.47;1.47;;;11.70;99.90;;;;;;4984313;28;20185;-76
2022/02/19 09:03:44;;;;;;;6.70;1.87;;;12.50;99.90;;;;;;5006936;28;20194;-76
2022/02/19 09:06:09;;;;;;;6.60;1.43;;;13.30;99.90;;;;;;5007181;28;20205;-75
2022/02/19 09:08:35;;;;;;;5.57;1.67;;;14.10;99.90;;;;;;5006565;28;20196;-75
2022/02/19 09:11:01;;;;;;;8.20;1.57;;;14.90;99.90;;;;;;5008777;28;20171;-77
2022/02/19 09:13:27;;;;;;;4.47;1.10;;;15.60;99.90;;;;;;5008782;28;20182;-77
2022/02/19 09:15:53;;;;;;;6.83;1.70;;;16.30;99.90;;;;;;5005506;28;20185;-77
2022/02/19 09:18:19;;;;;;;2.60;0.90;;;16.90;99.90;;;;;;4998896;28;20738;-77
2022/02/19 09:20:44;;;;;;;7.40;1.97;;;17.40;99.90;;;;;;4992039;28;20616;-78
2022/02/19 09:23:10;;;;;;;2.07;1.00;;;17.90;99.80;;;;;;5009927;28;20613;-76
2022/02/19 09:25:36;;;;;;;6.03;0.97;;;18.50;99.60;;;;;;4973271;28;20202;-77
2022/02/19 09:28:02;;;;;;;9.43;1.27;;;19.00;99.00;;;;;;4989869;28;20610;-77
2022/02/19 09:30:29;;;;;;;3.27;1.00;;;19.30;96.40;;;;;;4992234;28;20209;-76
2022/02/19 09:32:59;;;;;;;2.70;0.90;;;19.40;94.80;;;;;;5005558;28;20179;-76
2022/02/19 09:35:26;;;;;;;5.47;0.87;;;19.60;95.00;;;;;;5003385;28;21397;-78
2022/02/19 09:37:52;;;;;;;3.33;1.10;;;19.90;94.40;;;;;;5002962;28;20670;-77
2022/02/19 09:40:18;;;;;;;9.60;1.63;;;20.20;94.10;;;;;;4985339;28;20581;-76
2022/02/19 09:42:44;;;;;;;3.07;1.40;;;20.40;93.40;;;;;;5008061;28;20645;-76
2022/02/19 09:45:10;;;;;;;4.10;1.10;;;20.40;90.60;;;;;;4995581;28;20202;-76
2022/02/19 09:47:38;;;;;;;2.93;0.80;;;20.30;87.10;;;;;;5002683;28;20582;-75
2022/02/19 09:50:06;;;;;;;4.77;1.00;;;20.00;85.40;;;;;;4969210;28;20578;-76
2022/02/19 09:52:32;;;;;;;4.90;0.83;;;19.90;83.90;;;;;;4988540;28;20591;-76
2022/02/19 09:54:59;;;;;;;3.67;1.10;;;19.90;85.70;;;;;;4977961;28;21027;-75
2022/02/19 09:57:26;;;;;;;3.33;1.00;;;20.10;84.90;;;;;;5004675;28;20585;-76
2022/02/19 09:59:51;;;;;;;3.83;1.57;;;20.00;83.10;;;;;;4999114;28;20700;-76
2022/02/19 10:02:27;;;;;;;9.17;1.30;;;19.90;83.50;;;;;;4995975;28;20672;-75
2022/02/19 10:04:53;;;;;;;5.40;1.20;;;19.70;80.50;;;;;;4984094;28;20647;-75
2022/02/19 10:07:21;;;;;;;4.20;1.10;;;19.40;78.20;;;;;;4979607;28;20645;-75
2022/02/19 10:09:49;;;;;;;6.00;1.00;;;18.90;76.10;;;;;;4996089;28;20629;-76
2022/02/19 10:12:16;;;;;;;3.17;0.80;;;18.40;76.30;;;;;;4985371;28;20574;-75
2022/02/19 10:14:45;;;;;;;4.73;0.90;;;18.20;75.50;;;;;;5005574;28;20568;-77
2022/02/19 10:17:22;;;;;;;7.50;1.17;;;17.80;76.10;;;;;;5004695;28;20708;-77
2022/02/19 10:19:52;;;;;;;3.00;0.97;;;17.40;72.50;;;;;;5005100;28;20621;-77
2022/02/19 10:22:21;;;;;;;2.97;1.40;;;17.10;75.40;;;;;;4999659;28;20627;-77
2022/02/19 10:25:04;;;;;;;3.80;1.20;;;16.80;75.40;;;;;;4987624;28;20688;-76
2022/02/19 10:27:51;;;;;;;4.23;0.90;;;16.60;74.70;;;;;;5005848;28;20588;-76
2022/02/19 10:30:22;;;;;;;4.80;1.07;;;16.30;75.20;;;;;;4971837;28;20704;-76
2022/02/19 10:32:51;;;;;;;3.63;1.03;;;16.30;78.00;;;;;;4994898;28;20585;-77
2022/02/19 10:35:18;;;;;;;3.33;0.90;;;16.40;79.20;;;;;;4987733;28;20609;-78
2022/02/19 10:37:51;;;;;;;2.60;1.00;;;16.50;78.40;;;;;;4994530;28;20655;-79
2022/02/19 10:40:39;;;;;;;5.50;1.20;;;16.40;73.50;;;;;;4986531;28;20608;-79
2022/02/19 10:43:29;;;;;;;2.27;0.93;;;16.20;72.80;;;;;;4983642;28;20594;-79
2022/02/19 10:45:57;;;;;;;4.77;1.40;;;16.00;75.50;;;;;;4982707;28;20633;-79
2022/02/19 10:48:34;;;;;;;3.37;1.30;;;16.00;76.20;;;;;;5001964;28;20621;-79
2022/02/19 10:51:15;;;;;;;4.07;1.00;;;16.00;78.00;;;;;;4994033;28;20592;-79
2022/02/19 10:53:45;;;;;;;3.40;0.90;;;15.90;77.00;;;;;;4982818;28;20574;-78
2022/02/19 10:56:18;;;;;;;5.30;1.00;;;16.00;78.10;;;;;;4995366;28;21149;-78
2022/02/19 10:59:02;;;;;;;4.47;0.87;;;16.00;74.70;;;;;;5002209;28;20758;-78
2022/02/19 11:01:28;;;;;;;3.10;1.23;;;15.90;73.10;;;;;;4983878;28;21038;-78
2022/02/19 11:03:54;;;;;;;4.03;0.80;;;15.80;72.50;;;;;;5004567;28;20576;-77
2022/02/19 11:06:21;;;;;;;3.37;0.80;;;15.70;73.70;;;;;;5002781;28;20633;-78
2022/02/19 11:08:47;;;;;;;2.60;1.27;;;15.70;75.70;;;;;;5003440;28;20704;-77
2022/02/19 11:11:13;;;;;;;3.10;0.67;;;15.90;75.90;;;;;;4992483;28;20681;-78
2022/02/19 11:13:40;;;;;;;5.50;1.40;;;16.10;77.40;;;;;;4992206;28;20578;-77
2022/02/19 11:16:06;;;;;;;4.53;0.70;;;16.30;78.20;;;;;;5005256;28;20671;-78
2022/02/19 11:18:36;;;;;;;3.90;1.00;;;16.50;78.40;;;;;;5005365;28;20606;-78
2022/02/19 11:21:03;;;;;;;6.33;1.30;;;16.70;77.30;;;;;;4993106;28;20601;-78
2022/02/19 11:23:34;;;;;;;5.97;1.53;;;16.70;74.20;;;;;;5003483;28;20925;-78
2022/02/19 11:26:01;;;;;;;2.60;1.20;;;16.50;71.80;;;;;;4983738;28;20717;-77
2022/02/19 11:28:34;;;;;;;5.90;1.90;;;16.30;72.80;;;;;;5006297;28;20625;-78
2022/02/19 11:31:00;;;;;;;2.80;0.80;;;16.10;71.60;;;;;;5017721;28;20592;-77
2022/02/19 11:33:30;;;;;;;2.53;0.90;;;15.90;70.70;;;;;;5010719;28;20626;-77
2022/02/19 11:36:00;;;;;;;4.40;1.00;;;15.60;68.00;;;;;;4987264;28;20592;-77
2022/02/19 11:38:32;;;;;;;5.33;1.93;;;15.30;67.40;;;;;;4984182;28;20653;-76
2022/02/19 11:40:59;;;;;;;4.87;1.30;;;14.90;67.30;;;;;;5004688;28;20915;-78
2022/02/19 11:43:39;;;;;;;3.03;1.10;;;14.50;67.60;;;;;;4987138;28;20600;-77
2022/02/19 11:46:14;;;;;;;6.37;1.33;;;14.20;67.60;;;;;;5002270;28;20680;-77
2022/02/19 11:48:45;;;;;;;2.97;1.40;;;13.90;68.50;;;;;;4999270;28;20628;-77
2022/02/19 11:51:15;;;;;;;3.33;0.90;;;13.70;68.90;;;;;;5002794;28;20581;-76
2022/02/19 11:53:40;;;;;;;3.73;0.90;;;13.60;70.60;;;;;;5011161;28;20578;-77
2022/02/19 11:56:10;;;;;;;4.83;0.93;;;13.60;72.80;;;;;;4993903;28;20752;-77
2022/02/19 11:58:53;;;;;;;3.50;1.30;;;13.80;74.80;;;;;;5000660;28;20740;-79
2022/02/19 12:01:19;;;;;;;3.73;0.90;;;14.00;75.70;;;;;;5004650;28;20596;-78
2022/02/19 12:03:45;;;;;;;4.17;1.10;;;14.20;75.30;;;;;;4987851;28;20575;-80
2022/02/19 12:06:23;;;;;;;4.10;0.87;;;14.20;71.70;;;;;;5004529;28;20628;-78
2022/02/19 12:08:55;;;;;;;3.97;1.00;;;14.10;71.20;;;;;;4988442;28;20718;-79
2022/02/19 12:11:23;;;;;;;2.07;0.87;;;14.00;71.40;;;;;;5005899;28;20573;-80
2022/02/19 12:13:49;;;;;;;2.57;0.70;;;13.80;70.00;;;;;;4993558;28;20639;-80
2022/02/19 12:16:39;;;;;;;5.22;0.80;;;13.60;70.00;;;;;;5000918;28;20672;-80
2022/02/19 12:19:12;;;;;;;2.40;1.02;;;13.40;69.40;;;;;;5006587;28;20198;-80
2022/02/19 12:21:39;;;;;;;5.28;1.20;;;13.30;70.30;;;;;;4974644;28;20205;-79
2022/02/19 12:24:16;;;;;;;3.75;0.98;;;13.10;70.60;;;;;;5010090;28;20733;-80
2022/02/19 12:26:54;;;;;;;5.63;1.27;;;13.00;71.40;;;;;;5005641;28;20202;-79
2022/02/19 12:29:22;;;;;;;9.30;1.25;;;12.90;71.10;;;;;;5007540;28;20190;-78
2022/02/19 12:32:06;;;;;;;4.78;0.80;;;12.80;71.70;;;;;;4968172;28;20225;-79
2022/02/19 12:34:37;;;;;;;3.50;0.80;;;12.60;71.40;;;;;;5010537;28;20651;-78
2022/02/19 12:37:05;;;;;;;3.33;0.77;;;12.40;71.80;;;;;;4976463;28;20666;-79
2022/02/19 12:39:34;;;;;;;3.38;0.88;;;12.30;72.10;;;;;;5008861;28;20205;-77
2022/02/19 12:41:59;;;;;;;3.33;0.80;;;12.20;72.50;;;;;;5003868;28;20205;-80
2022/02/19 12:44:27;;;;;;;4.73;1.30;;;12.10;72.80;;;;;;4998973;28;20209;-78
2022/02/19 12:46:53;;;;;;;3.70;1.25;;;12.00;73.00;;;;;;5005946;28;20644;-79
2022/02/19 12:49:20;;;;;;;3.13;1.83;;;11.90;73.40;;;;;;4976790;28;20191;-80
2022/02/19 12:51:59;;;;;;;8.00;2.05;;;11.80;73.70;;;;;;5003986;28;20622;-80
2022/02/19 12:54:40;;;;;;;5.65;2.00;;;11.80;73.60;;;;;;5004495;28;20195;-77
2022/02/19 12:57:26;;;;;;;4.63;1.50;;;11.60;73.60;;;;;;4992895;28;20214;-78
2022/02/19 12:59:57;;;;;;;4.50;2.33;;;11.60;73.90;;;;;;5000442;28;20202;-79
2022/02/19 13:02:25;;;;;;;6.28;1.00;;;11.60;74.60;;;;;;4977403;28;20189;-79
2022/02/19 13:04:59;;;;;;;4.30;1.30;;;11.50;74.70;;;;;;4980701;28;20179;-79
2022/02/19 13:07:26;;;;;;;3.60;0.90;;;11.50;74.50;;;;;;4986534;28;20212;-79
2022/02/19 13:09:56;;;;;;;4.35;1.00;;;11.60;74.30;;;;;;4989409;28;20202;-79
2022/02/19 13:12:27;;;;;;;3.30;1.00;;;11.60;74.30;;;;;;4999637;28;20233;-79